createdAt,value
2022-09-01T00:05:55.441Z,2.38
2022-09-01T00:10:57.598Z,1.98
2022-09-01T00:16:01.335Z,1.90
2022-09-01T00:21:03.326Z,1.92
2022-09-01T00:26:05.927Z,2.10
2022-09-01T00:31:08.977Z,1.83
2022-09-01T00:41:14.656Z,1.88
2022-09-01T00:46:21.996Z,1.77
2022-09-01T00:51:24.795Z,1.80
2022-09-01T00:56:26.961Z,2.00
2022-09-01T01:01:29.017Z,2.17
2022-09-01T01:06:33.377Z,1.80
2022-09-01T01:11:36.220Z,1.80
2022-09-01T01:16:45.471Z,1.77
2022-09-01T01:22:06.285Z,2.25
2022-09-01T01:32:13.294Z,2.00
2022-09-01T01:37:15.608Z,1.52
2022-09-01T01:42:18.258Z,2.00
2022-09-01T01:52:26.181Z,2.20
2022-09-01T01:57:33.308Z,2.25
2022-09-01T02:02:35.504Z,1.90
2022-09-01T02:07:42.564Z,1.55
2022-09-01T02:12:44.648Z,1.77
2022-09-01T02:17:47.316Z,2.05
2022-09-01T02:22:52.206Z,1.98
2022-09-01T02:27:55.714Z,2.00
2022-09-01T02:32:58.895Z,2.03
2022-09-01T02:38:01.935Z,1.75
2022-09-01T02:43:03.978Z,2.10
2022-09-01T02:48:10.540Z,2.00
2022-09-01T02:53:15.600Z,1.52
2022-09-01T02:58:20.372Z,1.40
2022-09-01T03:03:27.245Z,1.45
2022-09-01T03:08:31.893Z,1.70
2022-09-01T03:13:34.350Z,1.42
2022-09-01T03:18:37.033Z,1.67
2022-09-01T03:23:39.288Z,1.55
2022-09-01T03:28:41.500Z,1.98
2022-09-01T03:33:44.830Z,1.40
2022-09-01T03:38:56.066Z,1.63
2022-09-01T03:43:59.545Z,1.60
2022-09-01T03:49:06.796Z,1.88
2022-09-01T03:54:12.145Z,1.92
2022-09-01T03:59:17.406Z,2.30
2022-09-01T04:04:21.413Z,1.40
2022-09-01T04:09:23.549Z,2.00
2022-09-01T04:14:30.517Z,1.80
2022-09-01T04:19:39.818Z,2.03
2022-09-01T04:24:46.016Z,1.80
2022-09-01T04:29:48.668Z,1.70
2022-09-01T04:34:51.164Z,1.75
2022-09-01T04:39:56.866Z,1.90
2022-09-01T04:45:09.962Z,1.95
2022-09-01T04:50:17.927Z,1.77
2022-09-01T04:55:43.988Z,1.73
2022-09-01T05:00:48.607Z,2.28
2022-09-01T05:05:54.323Z,1.52
2022-09-01T05:10:57.477Z,1.70
2022-09-01T05:16:24.103Z,1.60
2022-09-01T05:21:30.014Z,2.20
2022-09-01T05:26:34.790Z,1.70
2022-09-01T05:31:38.378Z,2.13
2022-09-01T05:36:46.428Z,1.63
2022-09-01T05:41:50.089Z,1.63
2022-09-01T05:46:53.894Z,1.77
2022-09-01T05:51:59.032Z,1.60
2022-09-01T05:57:23.332Z,1.90
2022-09-01T06:02:27.565Z,1.90
2022-09-01T06:07:32.695Z,1.60
2022-09-01T06:12:36.242Z,1.77
2022-09-01T06:17:38.386Z,1.70
2022-09-01T06:22:41.334Z,1.90
2022-09-01T06:27:46.017Z,1.35
2022-09-01T06:32:49.909Z,1.50
2022-09-01T06:37:53.011Z,1.85
2022-09-01T06:43:17.560Z,1.40
2022-09-01T06:48:24.100Z,2.10
2022-09-01T06:53:32.721Z,1.95
2022-09-01T06:58:38.427Z,2.00
2022-09-01T07:03:40.560Z,2.03
2022-09-01T07:14:19.628Z,3.85
2022-09-01T07:19:22.072Z,2.63
2022-09-01T07:24:31.963Z,2.33
2022-09-01T07:29:56.428Z,2.65
2022-09-01T07:34:58.621Z,2.22
2022-09-01T07:45:35.460Z,2.00
2022-09-01T07:56:11.482Z,2.60
2022-09-01T08:01:23.312Z,2.72
2022-09-01T08:06:27.939Z,2.30
2022-09-01T08:16:54.229Z,2.67
2022-09-01T08:21:57.693Z,2.55
2022-09-01T08:27:10.309Z,2.63
2022-09-01T08:32:12.524Z,2.92
2022-09-01T08:37:14.699Z,2.63
2022-09-01T08:42:22.306Z,2.85
2022-09-01T08:53:28.580Z,2.65
2022-09-01T08:58:32.597Z,2.63
2022-09-01T09:14:28.607Z,2.50
2022-09-01T09:19:36.106Z,2.78
2022-09-01T09:24:48.252Z,2.50
2022-09-01T09:29:56.762Z,2.42
2022-09-01T09:35:17.111Z,2.45
2022-09-01T09:40:27.253Z,2.55
2022-09-01T09:45:41.860Z,2.58
2022-09-01T09:50:44.468Z,2.90
2022-09-01T09:56:19.688Z,2.63
2022-09-01T10:01:26.120Z,2.53
2022-09-01T10:06:33.473Z,2.75
2022-09-01T10:11:41.965Z,2.42
2022-09-01T10:16:48.159Z,2.72
2022-09-01T10:21:50.726Z,2.83
2022-09-01T10:26:57.399Z,2.42
2022-09-01T10:32:30.497Z,3.00
2022-09-01T10:37:24.344Z,2.65
2022-09-01T10:42:28.325Z,2.78
2022-09-01T10:47:38.076Z,3.13
2022-09-01T10:52:43.177Z,2.83
2022-09-01T10:58:09.308Z,2.67
2022-09-01T11:03:40.889Z,2.72
2022-09-01T11:08:57.664Z,3.20
2022-09-01T11:14:00.871Z,3.10
2022-09-01T11:19:31.739Z,3.08
2022-09-01T11:24:40.404Z,3.35
2022-09-01T11:29:56.586Z,3.00
2022-09-01T11:35:03.654Z,2.90
2022-09-01T11:40:10.526Z,3.05
2022-09-01T11:45:23.690Z,2.78
2022-09-01T11:50:34.342Z,3.05
2022-09-01T11:55:44.956Z,3.28
2022-09-01T12:00:47.779Z,3.00
2022-09-01T12:06:00.574Z,3.40
2022-09-01T12:11:08.798Z,3.50
2022-09-01T12:16:18.524Z,2.95
2022-09-01T12:21:33.918Z,3.30
2022-09-01T12:31:43.399Z,2.95
2022-09-01T12:37:09.980Z,3.20
2022-09-01T12:42:38.939Z,3.35
2022-09-01T12:47:48.442Z,3.40
2022-09-01T12:53:04.348Z,3.45
2022-09-01T12:58:09.200Z,3.33
2022-09-01T13:03:18.219Z,3.22
2022-09-01T13:08:23.287Z,3.60
2022-09-01T13:13:26.833Z,3.30
2022-09-01T13:18:29.650Z,3.28
2022-09-01T13:23:32.211Z,3.58
2022-09-01T13:28:36.371Z,3.10
2022-09-01T13:39:03.299Z,3.42
2022-09-01T13:44:05.398Z,3.08
2022-09-01T13:49:42.153Z,3.35
2022-09-01T13:54:29.763Z,3.10
2022-09-01T13:59:33.188Z,3.10
2022-09-01T14:04:35.299Z,3.40
2022-09-01T14:20:03.305Z,2.90
2022-09-01T14:25:05.984Z,2.95
2022-09-01T14:30:10.107Z,3.28
2022-09-01T14:35:12.538Z,2.60
2022-09-01T14:40:17.176Z,2.30
2022-09-01T14:45:22.947Z,2.47
2022-09-01T14:50:25.774Z,2.55
2022-09-01T14:55:30.310Z,2.55
2022-09-01T15:00:36.119Z,2.65
2022-09-01T15:05:39.830Z,2.20
2022-09-01T15:10:42.537Z,2.38
2022-09-01T15:15:44.742Z,2.45
2022-09-01T15:20:47.025Z,1.98
2022-09-01T15:25:52.496Z,2.40
2022-09-01T15:30:54.741Z,2.60
2022-09-01T15:35:56.847Z,2.17
2022-09-01T15:41:00.229Z,2.17
2022-09-01T15:46:04.562Z,1.90
2022-09-01T15:51:26.601Z,2.05
2022-09-01T15:56:28.837Z,2.40
2022-09-01T16:01:34.674Z,2.40
2022-09-01T16:06:36.770Z,2.67
2022-09-01T16:11:40.329Z,2.50
2022-09-01T16:16:42.420Z,2.50
2022-09-01T16:22:10.664Z,2.55
2022-09-01T16:27:17.001Z,2.85
2022-09-01T16:32:21.675Z,2.70
2022-09-01T16:37:55.652Z,2.47
2022-09-01T16:43:09.514Z,2.40
2022-09-01T16:48:26.909Z,3.53
2022-09-01T16:54:24.948Z,2.53
2022-09-01T16:59:51.859Z,2.65
2022-09-01T17:05:05.219Z,2.67
2022-09-01T17:10:25.496Z,3.10
2022-09-01T17:15:41.012Z,2.92
2022-09-01T17:20:54.994Z,2.90
2022-09-01T17:26:05.101Z,2.40
2022-09-01T17:31:14.733Z,2.38
2022-09-01T17:36:51.868Z,2.92
2022-09-01T17:42:38.666Z,3.90
2022-09-01T17:48:07.859Z,3.33
2022-09-01T17:53:41.068Z,2.75
2022-09-01T18:04:36.051Z,3.00
2022-09-01T18:09:45.907Z,2.72
2022-09-01T18:15:11.323Z,2.92
2022-09-01T18:20:27.449Z,2.80
2022-09-01T18:25:39.707Z,3.45
2022-09-01T18:30:59.926Z,2.60
2022-09-01T18:36:07.952Z,2.90
2022-09-01T18:41:43.493Z,3.60
2022-09-01T18:46:55.308Z,2.58
2022-09-01T18:52:09.354Z,2.80
2022-09-01T18:57:21.242Z,2.58
2022-09-01T19:02:48.397Z,3.08
2022-09-01T19:07:56.106Z,2.50
2022-09-01T19:13:18.194Z,3.08
2022-09-01T19:18:29.853Z,2.72
2022-09-01T19:23:47.650Z,2.97
2022-09-01T19:28:54.539Z,2.60
2022-09-01T19:34:25.633Z,2.22
2022-09-01T19:39:38.433Z,2.88
2022-09-01T19:44:49.123Z,2.95
2022-09-01T19:50:09.509Z,2.88
2022-09-01T19:55:29.176Z,2.80
2022-09-01T20:00:53.672Z,2.70
2022-09-01T20:06:05.010Z,2.75
2022-09-01T20:11:43.368Z,2.97
2022-09-01T20:16:49.889Z,2.80
2022-09-01T20:21:52.179Z,3.50
2022-09-01T20:27:05.514Z,3.05
2022-09-01T20:32:10.454Z,3.67
2022-09-01T20:37:36.829Z,2.85
2022-09-01T20:43:12.928Z,2.72
2022-09-01T20:48:18.478Z,3.00
2022-09-01T20:53:36.299Z,3.78
2022-09-01T20:58:53.015Z,3.17
2022-09-01T21:04:17.180Z,3.40
2022-09-01T21:09:25.870Z,3.63
2022-09-01T21:14:49.149Z,3.13
2022-09-01T21:20:09.982Z,3.80
2022-09-01T21:25:12.290Z,2.92
2022-09-01T21:30:15.351Z,3.40
2022-09-01T21:35:20.028Z,3.08
2022-09-01T21:40:25.569Z,2.95
2022-09-01T21:45:28.105Z,3.08
2022-09-01T21:50:30.510Z,3.28
2022-09-01T21:55:32.719Z,3.25
2022-09-01T22:00:39.534Z,3.50
2022-09-01T22:05:45.146Z,3.35
2022-09-01T22:10:49.934Z,3.22
2022-09-01T22:15:53.742Z,3.10
2022-09-01T22:21:07.612Z,3.20
2022-09-01T22:26:17.653Z,3.05
2022-09-01T22:31:21.598Z,3.20
2022-09-01T22:36:36.988Z,3.20
2022-09-01T22:41:41.204Z,3.20
2022-09-01T22:46:43.258Z,2.97
2022-09-01T22:51:45.645Z,2.78
2022-09-01T22:56:49.979Z,3.67
2022-09-01T23:01:52.055Z,2.50
2022-09-01T23:06:54.642Z,3.35
2022-09-01T23:11:57.003Z,3.85
2022-09-01T23:16:59.110Z,3.28
2022-09-01T23:22:01.367Z,3.38
2022-09-01T23:27:03.693Z,2.97
2022-09-01T23:32:05.895Z,3.15
2022-09-01T23:37:08.157Z,3.58
2022-09-01T23:42:10.590Z,3.20
2022-09-01T23:47:12.691Z,2.80
2022-09-01T23:52:15.278Z,3.20
2022-09-01T23:57:17.394Z,3.10
